Terminal Aerodrome Forecast
Issued by NWS Mobile, AL

Home | Current Version | Previous Version | Text Only | Print | Product List | Glossary On
Versions: 1 2 3 4 5 6 7 8 9 10 11 12 13 14 15 16 17 18 19 20 21 22 23 24 25 26 27 28 29 30 31 32 33 34 35 36 37 38 39 40 41 42
000
FTUS44 KMOB 271720
TAFPNS
TAF
KPNS 271720Z 2718/2818 13012G20KT P6SM FEW010 SCT020 BKN040
     FM280300 18005KT 4SM BR OVC004
     FM280600 18005KT 1SM BR OVC004
      TEMPO 2808/2812 1/2SM FG VV002=

USA.gov is the U.S. government's official web portal to all federal, state and local government web resources and services.